sensor_id;sensor_type;location;lat;lon;timestamp;P1;durP1;ratioP1;P2;durP2;ratioP2
40459;SDS011;26164;51.138;16.952;2023-06-22T00:00:55;16.10;;;12.43;;
40459;SDS011;26164;51.138;16.952;2023-06-22T00:03:30;15.27;;;12.20;;
40459;SDS011;26164;51.138;16.952;2023-06-22T00:05:56;15.13;;;12.90;;
40459;SDS011;26164;51.138;16.952;2023-06-22T00:08:22;15.63;;;12.60;;
40459;SDS011;26164;51.138;16.952;2023-06-22T00:10:47;14.10;;;12.52;;
40459;SDS011;26164;51.138;16.952;2023-06-22T00:13:13;14.48;;;12.98;;
40459;SDS011;26164;51.138;16.952;2023-06-22T00:15:40;15.93;;;13.60;;
40459;SDS011;26164;51.138;16.952;2023-06-22T00:18:06;16.50;;;13.35;;
40459;SDS011;26164;51.138;16.952;2023-06-22T00:20:32;17.05;;;13.27;;
40459;SDS011;26164;51.138;16.952;2023-06-22T00:22:59;16.77;;;13.30;;
40459;SDS011;26164;51.138;16.952;2023-06-22T00:25:25;17.23;;;13.27;;
40459;SDS011;26164;51.138;16.952;2023-06-22T00:27:51;16.05;;;12.77;;
40459;SDS011;26164;51.138;16.952;2023-06-22T00:30:17;14.98;;;12.77;;
40459;SDS011;26164;51.138;16.952;2023-06-22T00:32:43;14.82;;;12.73;;
40459;SDS011;26164;51.138;16.952;2023-06-22T00:35:09;15.50;;;12.70;;
40459;SDS011;26164;51.138;16.952;2023-06-22T00:37:36;14.63;;;12.75;;
40459;SDS011;26164;51.138;16.952;2023-06-22T00:40:05;16.75;;;12.60;;
40459;SDS011;26164;51.138;16.952;2023-06-22T00:42:31;14.80;;;12.20;;
40459;SDS011;26164;51.138;16.952;2023-06-22T00:44:58;14.73;;;12.23;;
40459;SDS011;26164;51.138;16.952;2023-06-22T00:47:24;14.73;;;12.52;;
40459;SDS011;26164;51.138;16.952;2023-06-22T00:49:50;15.40;;;12.88;;
40459;SDS011;26164;51.138;16.952;2023-06-22T00:52:21;14.27;;;12.77;;
40459;SDS011;26164;51.138;16.952;2023-06-22T00:54:50;14.93;;;12.48;;
40459;SDS011;26164;51.138;16.952;2023-06-22T00:57:17;16.88;;;12.98;;
40459;SDS011;26164;51.138;16.952;2023-06-22T00:59:47;18.38;;;12.88;;
40459;SDS011;26164;51.138;16.952;2023-06-22T01:02:13;15.65;;;12.60;;
40459;SDS011;26164;51.138;16.952;2023-06-22T01:04:40;16.30;;;13.05;;
40459;SDS011;26164;51.138;16.952;2023-06-22T01:09:32;17.40;;;13.23;;
40459;SDS011;26164;51.138;16.952;2023-06-22T01:12:00;16.45;;;13.93;;
40459;SDS011;26164;51.138;16.952;2023-06-22T01:14:33;15.80;;;13.48;;
40459;SDS011;26164;51.138;16.952;2023-06-22T01:17:01;20.17;;;13.70;;
40459;SDS011;26164;51.138;16.952;2023-06-22T01:21:53;17.02;;;13.90;;
40459;SDS011;26164;51.138;16.952;2023-06-22T01:24:23;16.73;;;14.60;;
40459;SDS011;26164;51.138;16.952;2023-06-22T01:29:35;17.98;;;13.77;;
40459;SDS011;26164;51.138;16.952;2023-06-22T01:32:02;18.92;;;15.15;;
40459;SDS011;26164;51.138;16.952;2023-06-22T01:34:30;16.48;;;13.68;;
40459;SDS011;26164;51.138;16.952;2023-06-22T01:36:56;17.13;;;14.00;;
40459;SDS011;26164;51.138;16.952;2023-06-22T01:39:22;17.70;;;14.57;;
40459;SDS011;26164;51.138;16.952;2023-06-22T01:41:50;16.92;;;14.48;;
40459;SDS011;26164;51.138;16.952;2023-06-22T01:44:17;18.58;;;14.35;;
40459;SDS011;26164;51.138;16.952;2023-06-22T01:46:43;19.02;;;14.93;;
40459;SDS011;26164;51.138;16.952;2023-06-22T01:49:09;19.52;;;14.63;;
40459;SDS011;26164;51.138;16.952;2023-06-22T01:51:35;18.67;;;14.85;;
40459;SDS011;26164;51.138;16.952;2023-06-22T01:54:01;17.85;;;14.40;;
40459;SDS011;26164;51.138;16.952;2023-06-22T01:56:27;20.38;;;14.85;;
40459;SDS011;26164;51.138;16.952;2023-06-22T01:58:59;18.42;;;15.07;;
40459;SDS011;26164;51.138;16.952;2023-06-22T02:01:28;21.08;;;15.43;;
40459;SDS011;26164;51.138;16.952;2023-06-22T02:04:02;20.10;;;15.57;;
40459;SDS011;26164;51.138;16.952;2023-06-22T02:06:30;18.45;;;15.60;;
40459;SDS011;26164;51.138;16.952;2023-06-22T02:09:01;18.52;;;15.48;;
40459;SDS011;26164;51.138;16.952;2023-06-22T02:11:27;19.98;;;15.30;;
40459;SDS011;26164;51.138;16.952;2023-06-22T02:13:54;17.70;;;15.32;;
40459;SDS011;26164;51.138;16.952;2023-06-22T02:16:21;16.65;;;14.90;;
40459;SDS011;26164;51.138;16.952;2023-06-22T02:18:47;20.02;;;15.13;;
40459;SDS011;26164;51.138;16.952;2023-06-22T02:21:19;21.27;;;16.13;;
40459;SDS011;26164;51.138;16.952;2023-06-22T02:23:46;21.88;;;16.52;;
40459;SDS011;26164;51.138;16.952;2023-06-22T02:26:13;23.35;;;15.88;;
40459;SDS011;26164;51.138;16.952;2023-06-22T02:28:39;19.58;;;15.65;;
40459;SDS011;26164;51.138;16.952;2023-06-22T02:31:04;18.38;;;16.33;;
40459;SDS011;26164;51.138;16.952;2023-06-22T02:33:30;18.67;;;16.52;;
40459;SDS011;26164;51.138;16.952;2023-06-22T02:35:56;17.98;;;15.68;;
40459;SDS011;26164;51.138;16.952;2023-06-22T02:38:22;19.98;;;16.77;;
40459;SDS011;26164;51.138;16.952;2023-06-22T02:40:50;19.95;;;16.15;;
40459;SDS011;26164;51.138;16.952;2023-06-22T02:43:16;18.55;;;16.30;;
40459;SDS011;26164;51.138;16.952;2023-06-22T02:45:43;22.00;;;17.33;;
40459;SDS011;26164;51.138;16.952;2023-06-22T02:48:10;19.90;;;17.30;;
40459;SDS011;26164;51.138;16.952;2023-06-22T02:50:36;22.58;;;17.58;;
40459;SDS011;26164;51.138;16.952;2023-06-22T02:53:03;19.80;;;17.70;;
40459;SDS011;26164;51.138;16.952;2023-06-22T02:55:33;22.17;;;18.83;;
40459;SDS011;26164;51.138;16.952;2023-06-22T02:57:59;24.23;;;19.10;;
40459;SDS011;26164;51.138;16.952;2023-06-22T03:00:27;22.90;;;17.95;;
40459;SDS011;26164;51.138;16.952;2023-06-22T03:02:57;22.88;;;18.85;;
40459;SDS011;26164;51.138;16.952;2023-06-22T03:05:23;22.20;;;18.73;;
40459;SDS011;26164;51.138;16.952;2023-06-22T03:07:49;23.55;;;19.25;;
40459;SDS011;26164;51.138;16.952;2023-06-22T03:10:15;22.63;;;18.90;;
40459;SDS011;26164;51.138;16.952;2023-06-22T03:12:42;28.27;;;18.48;;
40459;SDS011;26164;51.138;16.952;2023-06-22T03:15:08;22.60;;;18.50;;
40459;SDS011;26164;51.138;16.952;2023-06-22T03:17:35;22.50;;;18.42;;
40459;SDS011;26164;51.138;16.952;2023-06-22T03:20:02;22.52;;;18.33;;
40459;SDS011;26164;51.138;16.952;2023-06-22T03:22:35;23.10;;;17.95;;
40459;SDS011;26164;51.138;16.952;2023-06-22T03:25:01;21.38;;;17.40;;
40459;SDS011;26164;51.138;16.952;2023-06-22T03:27:27;23.77;;;18.00;;
40459;SDS011;26164;51.138;16.952;2023-06-22T03:29:53;22.50;;;17.50;;
40459;SDS011;26164;51.138;16.952;2023-06-22T03:32:19;22.73;;;19.27;;
40459;SDS011;26164;51.138;16.952;2023-06-22T03:34:44;22.13;;;18.50;;
40459;SDS011;26164;51.138;16.952;2023-06-22T03:37:14;25.23;;;18.73;;
40459;SDS011;26164;51.138;16.952;2023-06-22T03:39:40;27.95;;;19.05;;
40459;SDS011;26164;51.138;16.952;2023-06-22T03:42:08;25.70;;;17.60;;
40459;SDS011;26164;51.138;16.952;2023-06-22T03:44:34;22.73;;;17.77;;
40459;SDS011;26164;51.138;16.952;2023-06-22T03:47:05;24.73;;;17.30;;
40459;SDS011;26164;51.138;16.952;2023-06-22T03:49:33;21.13;;;17.50;;
40459;SDS011;26164;51.138;16.952;2023-06-22T03:51:59;22.73;;;18.15;;
40459;SDS011;26164;51.138;16.952;2023-06-22T03:54:25;21.98;;;17.83;;
40459;SDS011;26164;51.138;16.952;2023-06-22T03:56:51;23.95;;;19.20;;
40459;SDS011;26164;51.138;16.952;2023-06-22T03:59:16;23.33;;;19.40;;
40459;SDS011;26164;51.138;16.952;2023-06-22T04:01:43;24.95;;;18.80;;
40459;SDS011;26164;51.138;16.952;2023-06-22T04:04:10;27.40;;;18.92;;
40459;SDS011;26164;51.138;16.952;2023-06-22T04:06:38;23.85;;;18.50;;
40459;SDS011;26164;51.138;16.952;2023-06-22T04:09:03;23.33;;;18.67;;
40459;SDS011;26164;51.138;16.952;2023-06-22T04:11:29;22.00;;;18.42;;
40459;SDS011;26164;51.138;16.952;2023-06-22T04:13:55;20.85;;;18.52;;
40459;SDS011;26164;51.138;16.952;2023-06-22T04:16:21;21.80;;;18.45;;
40459;SDS011;26164;51.138;16.952;2023-06-22T04:18:46;24.55;;;18.95;;
40459;SDS011;26164;51.138;16.952;2023-06-22T04:21:13;23.20;;;19.80;;
40459;SDS011;26164;51.138;16.952;2023-06-22T04:23:38;19.17;;;16.80;;
40459;SDS011;26164;51.138;16.952;2023-06-22T04:26:04;27.65;;;18.40;;
40459;SDS011;26164;51.138;16.952;2023-06-22T04:28:30;24.30;;;18.52;;
40459;SDS011;26164;51.138;16.952;2023-06-22T04:31:01;22.27;;;18.52;;
40459;SDS011;26164;51.138;16.952;2023-06-22T04:33:27;22.67;;;19.77;;
40459;SDS011;26164;51.138;16.952;2023-06-22T04:35:55;24.38;;;18.63;;
40459;SDS011;26164;51.138;16.952;2023-06-22T04:38:22;21.55;;;17.60;;
40459;SDS011;26164;51.138;16.952;2023-06-22T04:40:49;26.88;;;18.13;;
40459;SDS011;26164;51.138;16.952;2023-06-22T04:43:14;21.55;;;16.55;;
40459;SDS011;26164;51.138;16.952;2023-06-22T04:45:40;19.83;;;16.58;;
40459;SDS011;26164;51.138;16.952;2023-06-22T04:48:06;25.70;;;18.08;;
40459;SDS011;26164;51.138;16.952;2023-06-22T04:50:31;20.55;;;17.02;;
40459;SDS011;26164;51.138;16.952;2023-06-22T04:52:58;24.98;;;19.15;;
40459;SDS011;26164;51.138;16.952;2023-06-22T04:55:24;24.80;;;18.42;;
40459;SDS011;26164;51.138;16.952;2023-06-22T04:57:51;24.67;;;20.83;;
40459;SDS011;26164;51.138;16.952;2023-06-22T05:00:17;23.75;;;19.58;;
40459;SDS011;26164;51.138;16.952;2023-06-22T05:02:44;24.77;;;20.02;;
40459;SDS011;26164;51.138;16.952;2023-06-22T05:05:11;25.15;;;19.75;;
40459;SDS011;26164;51.138;16.952;2023-06-22T05:07:39;22.08;;;19.10;;
40459;SDS011;26164;51.138;16.952;2023-06-22T05:10:09;24.20;;;19.60;;
40459;SDS011;26164;51.138;16.952;2023-06-22T05:12:35;23.20;;;19.77;;
40459;SDS011;26164;51.138;16.952;2023-06-22T05:15:03;25.10;;;20.42;;
40459;SDS011;26164;51.138;16.952;2023-06-22T05:17:30;25.15;;;19.65;;
40459;SDS011;26164;51.138;16.952;2023-06-22T05:19:56;21.02;;;18.58;;
40459;SDS011;26164;51.138;16.952;2023-06-22T05:22:21;24.08;;;20.58;;
40459;SDS011;26164;51.138;16.952;2023-06-22T05:24:47;25.02;;;20.25;;
40459;SDS011;26164;51.138;16.952;2023-06-22T05:27:13;27.08;;;20.55;;
40459;SDS011;26164;51.138;16.952;2023-06-22T05:29:39;25.55;;;21.02;;
40459;SDS011;26164;51.138;16.952;2023-06-22T05:32:05;29.80;;;20.27;;
40459;SDS011;26164;51.138;16.952;2023-06-22T05:34:31;26.58;;;21.08;;
40459;SDS011;26164;51.138;16.952;2023-06-22T05:36:57;22.30;;;19.30;;
40459;SDS011;26164;51.138;16.952;2023-06-22T05:39:24;23.98;;;18.85;;
40459;SDS011;26164;51.138;16.952;2023-06-22T05:41:50;20.48;;;17.23;;
40459;SDS011;26164;51.138;16.952;2023-06-22T05:44:16;21.77;;;16.92;;
40459;SDS011;26164;51.138;16.952;2023-06-22T05:46:42;18.65;;;15.95;;
40459;SDS011;26164;51.138;16.952;2023-06-22T05:49:12;22.77;;;16.60;;
40459;SDS011;26164;51.138;16.952;2023-06-22T05:51:38;18.42;;;16.15;;
40459;SDS011;26164;51.138;16.952;2023-06-22T05:54:04;22.13;;;15.27;;
40459;SDS011;26164;51.138;16.952;2023-06-22T05:56:30;20.17;;;14.38;;
40459;SDS011;26164;51.138;16.952;2023-06-22T05:58:56;20.25;;;14.77;;
40459;SDS011;26164;51.138;16.952;2023-06-22T06:01:21;18.23;;;14.93;;
40459;SDS011;26164;51.138;16.952;2023-06-22T06:03:47;18.30;;;14.77;;
40459;SDS011;26164;51.138;16.952;2023-06-22T06:06:14;17.70;;;14.60;;
40459;SDS011;26164;51.138;16.952;2023-06-22T06:08:40;18.13;;;14.02;;
40459;SDS011;26164;51.138;16.952;2023-06-22T06:11:06;20.52;;;13.10;;
40459;SDS011;26164;51.138;16.952;2023-06-22T06:13:32;17.00;;;12.80;;
40459;SDS011;26164;51.138;16.952;2023-06-22T06:15:58;18.27;;;13.50;;
40459;SDS011;26164;51.138;16.952;2023-06-22T06:18:25;16.40;;;13.38;;
40459;SDS011;26164;51.138;16.952;2023-06-22T06:20:50;16.20;;;12.75;;
40459;SDS011;26164;51.138;16.952;2023-06-22T06:23:16;17.17;;;13.32;;
40459;SDS011;26164;51.138;16.952;2023-06-22T06:25:42;14.63;;;11.63;;
40459;SDS011;26164;51.138;16.952;2023-06-22T06:28:08;19.73;;;10.77;;
40459;SDS011;26164;51.138;16.952;2023-06-22T06:30:33;16.48;;;10.98;;
40459;SDS011;26164;51.138;16.952;2023-06-22T06:33:00;16.17;;;11.43;;
40459;SDS011;26164;51.138;16.952;2023-06-22T06:35:26;14.95;;;11.23;;
40459;SDS011;26164;51.138;16.952;2023-06-22T06:37:52;16.20;;;11.30;;
40459;SDS011;26164;51.138;16.952;2023-06-22T06:40:17;16.80;;;11.40;;
40459;SDS011;26164;51.138;16.952;2023-06-22T06:42:45;12.57;;;10.32;;
40459;SDS011;26164;51.138;16.952;2023-06-22T06:45:11;14.07;;;11.15;;
40459;SDS011;26164;51.138;16.952;2023-06-22T06:47:38;11.77;;;10.13;;
40459;SDS011;26164;51.138;16.952;2023-06-22T06:50:05;13.65;;;10.27;;
40459;SDS011;26164;51.138;16.952;2023-06-22T06:52:31;13.95;;;11.02;;
40459;SDS011;26164;51.138;16.952;2023-06-22T06:54:56;15.63;;;10.73;;
40459;SDS011;26164;51.138;16.952;2023-06-22T06:57:22;14.00;;;11.15;;
40459;SDS011;26164;51.138;16.952;2023-06-22T06:59:48;13.30;;;10.20;;
40459;SDS011;26164;51.138;16.952;2023-06-22T07:02:17;14.95;;;10.75;;
40459;SDS011;26164;51.138;16.952;2023-06-22T07:04:44;16.73;;;10.88;;
40459;SDS011;26164;51.138;16.952;2023-06-22T07:07:10;13.68;;;10.93;;
40459;SDS011;26164;51.138;16.952;2023-06-22T07:09:35;16.38;;;11.00;;
40459;SDS011;26164;51.138;16.952;2023-06-22T07:12:02;11.45;;;9.88;;
40459;SDS011;26164;51.138;16.952;2023-06-22T07:14:27;15.23;;;11.43;;
40459;SDS011;26164;51.138;16.952;2023-06-22T07:16:54;12.43;;;10.52;;
40459;SDS011;26164;51.138;16.952;2023-06-22T07:19:26;12.68;;;10.35;;
40459;SDS011;26164;51.138;16.952;2023-06-22T07:24:20;12.30;;;11.00;;
40459;SDS011;26164;51.138;16.952;2023-06-22T07:26:49;14.82;;;10.75;;
40459;SDS011;26164;51.138;16.952;2023-06-22T07:29:18;16.83;;;10.73;;
40459;SDS011;26164;51.138;16.952;2023-06-22T07:31:46;16.63;;;11.75;;
40459;SDS011;26164;51.138;16.952;2023-06-22T07:34:12;12.73;;;11.05;;
40459;SDS011;26164;51.138;16.952;2023-06-22T07:36:38;16.58;;;12.00;;
40459;SDS011;26164;51.138;16.952;2023-06-22T07:39:04;18.83;;;12.88;;
40459;SDS011;26164;51.138;16.952;2023-06-22T07:41:30;16.90;;;12.95;;
40459;SDS011;26164;51.138;16.952;2023-06-22T07:43:56;15.52;;;12.90;;
40459;SDS011;26164;51.138;16.952;2023-06-22T07:46:22;13.45;;;12.05;;
40459;SDS011;26164;51.138;16.952;2023-06-22T07:48:48;17.60;;;11.63;;
40459;SDS011;26164;51.138;16.952;2023-06-22T07:51:14;14.30;;;11.70;;
40459;SDS011;26164;51.138;16.952;2023-06-22T07:53:40;14.25;;;11.40;;
40459;SDS011;26164;51.138;16.952;2023-06-22T07:56:06;16.50;;;11.68;;
40459;SDS011;26164;51.138;16.952;2023-06-22T07:58:35;17.48;;;11.85;;
40459;SDS011;26164;51.138;16.952;2023-06-22T08:01:01;15.65;;;12.13;;
40459;SDS011;26164;51.138;16.952;2023-06-22T08:03:26;15.38;;;11.70;;
40459;SDS011;26164;51.138;16.952;2023-06-22T08:05:52;15.38;;;12.85;;
40459;SDS011;26164;51.138;16.952;2023-06-22T08:08:21;13.00;;;11.65;;
40459;SDS011;26164;51.138;16.952;2023-06-22T08:10:49;14.63;;;12.25;;
40459;SDS011;26164;51.138;16.952;2023-06-22T08:13:15;13.52;;;11.32;;
40459;SDS011;26164;51.138;16.952;2023-06-22T08:15:43;13.98;;;11.90;;
40459;SDS011;26164;51.138;16.952;2023-06-22T08:18:14;12.90;;;11.52;;
40459;SDS011;26164;51.138;16.952;2023-06-22T08:20:42;13.82;;;11.32;;
40459;SDS011;26164;51.138;16.952;2023-06-22T08:23:09;14.15;;;11.10;;
40459;SDS011;26164;51.138;16.952;2023-06-22T08:25:39;12.27;;;10.45;;
40459;SDS011;26164;51.138;16.952;2023-06-22T08:28:05;12.85;;;11.05;;
40459;SDS011;26164;51.138;16.952;2023-06-22T08:30:31;13.07;;;10.77;;
40459;SDS011;26164;51.138;16.952;2023-06-22T08:32:57;13.63;;;11.15;;
40459;SDS011;26164;51.138;16.952;2023-06-22T08:35:23;14.18;;;10.65;;
40459;SDS011;26164;51.138;16.952;2023-06-22T08:37:48;12.38;;;10.27;;
40459;SDS011;26164;51.138;16.952;2023-06-22T08:40:21;12.15;;;9.70;;
40459;SDS011;26164;51.138;16.952;2023-06-22T08:42:47;13.68;;;9.85;;
40459;SDS011;26164;51.138;16.952;2023-06-22T08:45:14;14.43;;;10.05;;
40459;SDS011;26164;51.138;16.952;2023-06-22T08:47:40;12.40;;;9.80;;
40459;SDS011;26164;51.138;16.952;2023-06-22T08:50:07;12.48;;;10.23;;
40459;SDS011;26164;51.138;16.952;2023-06-22T08:52:34;10.90;;;9.23;;
40459;SDS011;26164;51.138;16.952;2023-06-22T08:55:03;11.70;;;9.02;;
40459;SDS011;26164;51.138;16.952;2023-06-22T08:57:29;13.00;;;9.07;;
40459;SDS011;26164;51.138;16.952;2023-06-22T08:59:57;11.70;;;8.52;;
40459;SDS011;26164;51.138;16.952;2023-06-22T09:02:26;12.27;;;8.95;;
40459;SDS011;26164;51.138;16.952;2023-06-22T09:04:52;10.82;;;9.00;;
40459;SDS011;26164;51.138;16.952;2023-06-22T09:07:21;10.48;;;9.13;;
40459;SDS011;26164;51.138;16.952;2023-06-22T09:09:49;12.85;;;8.80;;
40459;SDS011;26164;51.138;16.952;2023-06-22T09:12:18;10.48;;;8.35;;
40459;SDS011;26164;51.138;16.952;2023-06-22T09:14:46;9.60;;;8.60;;
40459;SDS011;26164;51.138;16.952;2023-06-22T09:17:12;9.40;;;8.30;;
40459;SDS011;26164;51.138;16.952;2023-06-22T09:19:39;11.82;;;8.52;;
40459;SDS011;26164;51.138;16.952;2023-06-22T09:22:06;9.75;;;8.52;;
40459;SDS011;26164;51.138;16.952;2023-06-22T09:24:33;11.13;;;8.75;;
40459;SDS011;26164;51.138;16.952;2023-06-22T09:27:03;9.98;;;8.43;;
40459;SDS011;26164;51.138;16.952;2023-06-22T09:29:29;11.45;;;8.40;;
40459;SDS011;26164;51.138;16.952;2023-06-22T09:31:58;11.07;;;8.25;;
40459;SDS011;26164;51.138;16.952;2023-06-22T09:34:25;10.70;;;8.00;;
40459;SDS011;26164;51.138;16.952;2023-06-22T09:36:50;9.85;;;8.10;;
40459;SDS011;26164;51.138;16.952;2023-06-22T09:39:19;9.15;;;7.53;;
40459;SDS011;26164;51.138;16.952;2023-06-22T09:41:45;9.75;;;7.88;;
40459;SDS011;26164;51.138;16.952;2023-06-22T09:44:12;9.23;;;8.00;;
40459;SDS011;26164;51.138;16.952;2023-06-22T09:46:40;9.55;;;8.25;;
40459;SDS011;26164;51.138;16.952;2023-06-22T09:49:06;10.05;;;8.10;;
40459;SDS011;26164;51.138;16.952;2023-06-22T09:51:32;8.90;;;8.00;;
40459;SDS011;26164;51.138;16.952;2023-06-22T09:53:58;9.20;;;8.00;;
40459;SDS011;26164;51.138;16.952;2023-06-22T09:56:23;11.13;;;8.15;;
40459;SDS011;26164;51.138;16.952;2023-06-22T09:58:49;9.68;;;7.97;;
40459;SDS011;26164;51.138;16.952;2023-06-22T10:01:18;10.07;;;8.52;;
40459;SDS011;26164;51.138;16.952;2023-06-22T10:03:44;8.80;;;7.90;;
40459;SDS011;26164;51.138;16.952;2023-06-22T10:06:09;12.75;;;7.53;;
40459;SDS011;26164;51.138;16.952;2023-06-22T10:08:35;9.40;;;7.68;;
40459;SDS011;26164;51.138;16.952;2023-06-22T10:11:01;9.13;;;6.82;;
40459;SDS011;26164;51.138;16.952;2023-06-22T10:13:27;8.00;;;6.78;;
40459;SDS011;26164;51.138;16.952;2023-06-22T10:15:53;9.10;;;6.60;;
40459;SDS011;26164;51.138;16.952;2023-06-22T10:18:19;7.63;;;6.80;;
40459;SDS011;26164;51.138;16.952;2023-06-22T10:20:47;9.43;;;7.47;;
40459;SDS011;26164;51.138;16.952;2023-06-22T10:23:13;9.15;;;7.20;;
40459;SDS011;26164;51.138;16.952;2023-06-22T10:25:38;10.75;;;7.22;;
40459;SDS011;26164;51.138;16.952;2023-06-22T10:28:04;9.60;;;8.30;;
40459;SDS011;26164;51.138;16.952;2023-06-22T10:30:30;10.23;;;7.28;;
40459;SDS011;26164;51.138;16.952;2023-06-22T10:32:56;7.72;;;6.95;;
40459;SDS011;26164;51.138;16.952;2023-06-22T10:35:22;11.23;;;7.70;;
40459;SDS011;26164;51.138;16.952;2023-06-22T10:37:48;8.95;;;7.50;;
40459;SDS011;26164;51.138;16.952;2023-06-22T10:40:14;10.48;;;7.88;;
40459;SDS011;26164;51.138;16.952;2023-06-22T10:42:41;13.43;;;8.88;;
40459;SDS011;26164;51.138;16.952;2023-06-22T10:45:07;10.00;;;8.60;;
40459;SDS011;26164;51.138;16.952;2023-06-22T10:47:34;9.25;;;7.78;;
40459;SDS011;26164;51.138;16.952;2023-06-22T10:49:59;8.93;;;7.82;;
40459;SDS011;26164;51.138;16.952;2023-06-22T10:52:26;9.93;;;8.25;;
40459;SDS011;26164;51.138;16.952;2023-06-22T10:54:54;11.55;;;7.78;;
40459;SDS011;26164;51.138;16.952;2023-06-22T10:57:21;8.05;;;6.68;;
40459;SDS011;26164;51.138;16.952;2023-06-22T10:59:54;8.00;;;7.20;;
40459;SDS011;26164;51.138;16.952;2023-06-22T11:02:20;8.30;;;6.70;;
40459;SDS011;26164;51.138;16.952;2023-06-22T11:04:45;7.90;;;7.07;;
40459;SDS011;26164;51.138;16.952;2023-06-22T11:07:12;10.18;;;7.55;;
40459;SDS011;26164;51.138;16.952;2023-06-22T11:09:38;8.98;;;7.00;;
40459;SDS011;26164;51.138;16.952;2023-06-22T11:12:05;7.78;;;6.80;;
40459;SDS011;26164;51.138;16.952;2023-06-22T11:14:31;8.25;;;7.05;;
40459;SDS011;26164;51.138;16.952;2023-06-22T11:16:57;11.05;;;7.45;;
40459;SDS011;26164;51.138;16.952;2023-06-22T11:19:23;8.63;;;6.80;;
40459;SDS011;26164;51.138;16.952;2023-06-22T11:21:49;7.65;;;6.85;;
40459;SDS011;26164;51.138;16.952;2023-06-22T11:24:14;7.57;;;6.50;;
40459;SDS011;26164;51.138;16.952;2023-06-22T11:26:41;7.30;;;6.30;;
40459;SDS011;26164;51.138;16.952;2023-06-22T11:29:07;7.30;;;6.30;;
40459;SDS011;26164;51.138;16.952;2023-06-22T11:31:34;7.53;;;6.28;;
40459;SDS011;26164;51.138;16.952;2023-06-22T11:34:00;7.32;;;5.93;;
40459;SDS011;26164;51.138;16.952;2023-06-22T11:36:26;8.57;;;6.20;;
40459;SDS011;26164;51.138;16.952;2023-06-22T11:38:52;8.30;;;5.97;;
40459;SDS011;26164;51.138;16.952;2023-06-22T11:41:18;6.75;;;5.95;;
40459;SDS011;26164;51.138;16.952;2023-06-22T11:43:44;6.05;;;5.43;;
40459;SDS011;26164;51.138;16.952;2023-06-22T11:46:10;7.88;;;5.35;;
40459;SDS011;26164;51.138;16.952;2023-06-22T11:48:36;6.20;;;5.20;;
40459;SDS011;26164;51.138;16.952;2023-06-22T11:51:03;5.85;;;5.07;;
40459;SDS011;26164;51.138;16.952;2023-06-22T11:53:29;7.28;;;4.97;;
40459;SDS011;26164;51.138;16.952;2023-06-22T11:55:55;7.13;;;5.32;;
40459;SDS011;26164;51.138;16.952;2023-06-22T11:58:21;8.25;;;5.30;;
40459;SDS011;26164;51.138;16.952;2023-06-22T12:00:48;5.65;;;4.60;;
40459;SDS011;26164;51.138;16.952;2023-06-22T12:03:13;6.63;;;5.32;;
40459;SDS011;26164;51.138;16.952;2023-06-22T12:05:40;6.50;;;4.95;;
40459;SDS011;26164;51.138;16.952;2023-06-22T12:08:06;5.47;;;4.78;;
40459;SDS011;26164;51.138;16.952;2023-06-22T12:10:32;8.60;;;4.78;;
40459;SDS011;26164;51.138;16.952;2023-06-22T12:12:57;5.47;;;4.72;;
40459;SDS011;26164;51.138;16.952;2023-06-22T12:15:26;6.85;;;4.65;;
40459;SDS011;26164;51.138;16.952;2023-06-22T12:17:51;5.30;;;4.57;;
40459;SDS011;26164;51.138;16.952;2023-06-22T12:20:17;6.97;;;4.50;;
40459;SDS011;26164;51.138;16.952;2023-06-22T12:22:44;7.88;;;4.65;;
40459;SDS011;26164;51.138;16.952;2023-06-22T12:25:10;6.13;;;4.55;;
40459;SDS011;26164;51.138;16.952;2023-06-22T12:27:35;6.25;;;4.63;;
40459;SDS011;26164;51.138;16.952;2023-06-22T12:30:02;5.13;;;4.20;;
40459;SDS011;26164;51.138;16.952;2023-06-22T12:32:28;5.47;;;4.30;;
40459;SDS011;26164;51.138;16.952;2023-06-22T12:34:54;6.63;;;4.00;;
40459;SDS011;26164;51.138;16.952;2023-06-22T12:37:20;5.93;;;4.57;;
40459;SDS011;26164;51.138;16.952;2023-06-22T12:39:46;7.47;;;4.15;;
40459;SDS011;26164;51.138;16.952;2023-06-22T12:42:12;4.80;;;4.30;;
40459;SDS011;26164;51.138;16.952;2023-06-22T12:44:38;5.28;;;4.15;;
40459;SDS011;26164;51.138;16.952;2023-06-22T12:47:04;5.13;;;4.20;;
40459;SDS011;26164;51.138;16.952;2023-06-22T12:49:30;6.20;;;4.50;;
40459;SDS011;26164;51.138;16.952;2023-06-22T12:51:56;5.53;;;4.68;;
40459;SDS011;26164;51.138;16.952;2023-06-22T12:54:22;7.18;;;4.85;;
40459;SDS011;26164;51.138;16.952;2023-06-22T12:56:49;5.85;;;4.50;;
40459;SDS011;26164;51.138;16.952;2023-06-22T12:59:15;5.50;;;4.90;;
40459;SDS011;26164;51.138;16.952;2023-06-22T13:01:42;7.40;;;4.70;;
40459;SDS011;26164;51.138;16.952;2023-06-22T13:04:09;6.90;;;4.90;;
40459;SDS011;26164;51.138;16.952;2023-06-22T13:06:36;8.18;;;4.50;;
40459;SDS011;26164;51.138;16.952;2023-06-22T13:09:02;7.03;;;4.95;;
40459;SDS011;26164;51.138;16.952;2023-06-22T13:11:30;5.70;;;4.93;;
40459;SDS011;26164;51.138;16.952;2023-06-22T13:13:56;6.38;;;5.20;;
40459;SDS011;26164;51.138;16.952;2023-06-22T13:16:22;6.95;;;5.20;;
40459;SDS011;26164;51.138;16.952;2023-06-22T13:18:48;5.00;;;4.50;;
40459;SDS011;26164;51.138;16.952;2023-06-22T13:21:14;8.55;;;4.70;;
40459;SDS011;26164;51.138;16.952;2023-06-22T13:23:40;5.60;;;5.00;;
40459;SDS011;26164;51.138;16.952;2023-06-22T13:26:07;8.13;;;5.22;;
40459;SDS011;26164;51.138;16.952;2023-06-22T13:28:33;9.13;;;5.13;;
40459;SDS011;26164;51.138;16.952;2023-06-22T13:30:59;7.18;;;5.25;;
40459;SDS011;26164;51.138;16.952;2023-06-22T13:33:25;7.57;;;5.72;;
40459;SDS011;26164;51.138;16.952;2023-06-22T13:35:50;7.30;;;5.68;;
40459;SDS011;26164;51.138;16.952;2023-06-22T13:38:16;7.18;;;5.25;;
40459;SDS011;26164;51.138;16.952;2023-06-22T13:40:42;8.07;;;5.45;;
40459;SDS011;26164;51.138;16.952;2023-06-22T13:43:09;7.05;;;5.70;;
40459;SDS011;26164;51.138;16.952;2023-06-22T13:45:34;7.47;;;5.28;;
40459;SDS011;26164;51.138;16.952;2023-06-22T13:48:00;8.40;;;6.13;;
40459;SDS011;26164;51.138;16.952;2023-06-22T13:50:26;8.75;;;5.82;;
40459;SDS011;26164;51.138;16.952;2023-06-22T13:52:52;6.88;;;5.82;;
40459;SDS011;26164;51.138;16.952;2023-06-22T13:55:17;6.40;;;5.40;;
40459;SDS011;26164;51.138;16.952;2023-06-22T13:57:45;8.43;;;5.78;;
40459;SDS011;26164;51.138;16.952;2023-06-22T14:00:11;12.20;;;5.75;;
40459;SDS011;26164;51.138;16.952;2023-06-22T14:02:38;8.10;;;6.35;;
40459;SDS011;26164;51.138;16.952;2023-06-22T14:05:05;6.88;;;5.72;;
40459;SDS011;26164;51.138;16.952;2023-06-22T14:07:32;6.45;;;4.78;;
40459;SDS011;26164;51.138;16.952;2023-06-22T14:09:59;8.23;;;5.20;;
40459;SDS011;26164;51.138;16.952;2023-06-22T14:12:25;7.90;;;5.35;;
40459;SDS011;26164;51.138;16.952;2023-06-22T14:14:51;5.63;;;4.70;;
40459;SDS011;26164;51.138;16.952;2023-06-22T14:17:18;7.20;;;5.15;;
40459;SDS011;26164;51.138;16.952;2023-06-22T14:19:49;7.13;;;5.25;;
40459;SDS011;26164;51.138;16.952;2023-06-22T14:22:15;5.45;;;4.60;;
40459;SDS011;26164;51.138;16.952;2023-06-22T14:24:40;7.00;;;5.10;;